PROFILE

 METAR AND TAF INFORMATION
ADDS - METARS form results

(0706 UTC 17 October 2021)
http://aviationweather.gov/metar/data/
 
EGPF 170650Z AUTO 26002KT 2100 DZ BKN004 OVC009 08/08 Q1009
EGPF 170620Z AUTO 24003KT 2800 -DZ OVC005 08/08 Q1009 REDZ
TAF EGPF 170458Z 1706/1806 VRB04KT 9999 BKN006 TEMPO 1706/1806 4000 RADZ TEMPO 1706/1715 BKN002 PROB30 TEMPO 1706/1715 1400 DZ BR BKN001 TEMPO 1715/1806 SCT008 BKN015 PROB40 TEMPO 1715/1806 BKN004 

 AIRPORT MAP

 RUNWAY INFORMATION
Runway 05 Runway length 8720 ft Runway width 151 ft
Runway elevation 26 ft Runway displaced threshold 0 ft Runway heading 46
Runway 23 Runway length 8720 ft Runway width 151 ft
Runway elevation 21 ft Runway displaced threshold 980 ft Runway heading 226
Runway 09 Runway length 3622 ft Runway width 151 ft
Runway elevation 17 ft Runway displaced threshold 203 ft Runway heading 91
Runway 27 Runway length 3622 ft Runway width 151 ft
Runway elevation 23 ft Runway displaced threshold 0 ft Runway heading 271

 AIRPORT FREQUENCIES
Type ACC Name SHANWICK O Frequency 120.35 MHZ
Type APP Name APP Frequency 119.1 MHZ
Type ATIS Name ATIS Frequency 129.575 MHZ
Type GND Name GND Frequency 121.7 MHZ
Type TWR Name TWR Frequency 118.8 MHZ

 AIRPORT NEAR NAVIGATION AIDS
Type NDB Name Glasgow Frequency 331 KHZ
Type VOR-DME Name Glasgow Frequency 115400 KHZ